Mountain Park, Oklahoma
Current Conditions -  °F | °C
As of 11:58 PM on Thursday 30 Oct 2014 (Local Time) from KLTS Reporting Station
Clear Clear  
Wind Chill: 60°   Ceiling: Unl
Heat Index: 60°   Visibility: 10mi
Dew Point: 33°   Wind: 10mph
Humidity: 36%   Direction: 20°NNE
Pressure: 30.26"   Gusts: NA
Location:  34.7°N, 98.95°W
Report Text: KLTS 310458Z 02009KT 10SM CLR 16/00 A3026 RMK AO2A SLP239 T01560004 $
Loading
Personal Weather Stations






























Interactive Weather Map
Tropical Storm Tracking
New forecast layout! Learn more

10-Day Weather Forecast

Advertisements
Track Severe Weather on mobile